createdAt,value
2022-12-26T00:00:56.354Z,11.6
2022-12-26T00:01:56.324Z,11.6
2022-12-26T00:02:56.449Z,11.6
2022-12-26T00:03:56.564Z,11.6
2022-12-26T00:04:56.615Z,11.6
2022-12-26T00:05:56.752Z,11.6
2022-12-26T00:06:56.654Z,11.6
2022-12-26T00:08:02.004Z,11.6
2022-12-26T00:08:56.798Z,11.5
2022-12-26T00:09:56.859Z,11.6
2022-12-26T00:10:56.941Z,11.6
2022-12-26T00:11:57.021Z,11.6
2022-12-26T00:13:38.057Z,11.5
2022-12-26T00:13:57.209Z,11.5
2022-12-26T00:14:57.265Z,11.6
2022-12-26T00:15:57.390Z,11.6
2022-12-26T00:16:57.447Z,11.6
2022-12-26T00:17:57.516Z,11.6
2022-12-26T00:18:57.572Z,11.6
2022-12-26T00:19:57.649Z,11.6
2022-12-26T00:20:58.276Z,11.6
2022-12-26T00:21:57.833Z,11.6
2022-12-26T00:22:57.950Z,11.6
2022-12-26T00:23:58.491Z,11.6
2022-12-26T00:25:03.086Z,11.5
2022-12-26T00:25:58.184Z,11.5
2022-12-26T00:26:58.246Z,11.5
2022-12-26T00:27:58.320Z,11.6
2022-12-26T00:28:58.424Z,11.5
2022-12-26T00:29:58.476Z,11.5
2022-12-26T00:30:58.562Z,11.5
2022-12-26T00:31:58.727Z,11.5
2022-12-26T00:32:58.751Z,11.5
2022-12-26T00:33:58.980Z,11.5
2022-12-26T00:34:58.885Z,11.6
2022-12-26T00:35:58.985Z,11.6
2022-12-26T00:36:59.055Z,11.5
2022-12-26T00:37:59.177Z,11.5
2022-12-26T00:38:59.250Z,11.5
2022-12-26T00:40:00.277Z,11.6
2022-12-26T00:40:59.331Z,11.6
2022-12-26T00:41:59.683Z,11.5
2022-12-26T00:42:59.532Z,11.5
2022-12-26T00:43:59.628Z,11.4
2022-12-26T00:44:59.639Z,11.5
2022-12-26T00:45:59.986Z,11.4
2022-12-26T00:46:59.966Z,11.4
2022-12-26T00:47:59.907Z,11.5
2022-12-26T00:48:59.949Z,11.4
2022-12-26T00:50:11.812Z,11.4
2022-12-26T00:51:00.116Z,11.4
2022-12-26T00:52:00.427Z,11.4
2022-12-26T00:53:00.270Z,11.4
2022-12-26T00:54:06.257Z,11.4
2022-12-26T00:55:00.428Z,11.4
2022-12-26T00:56:00.513Z,11.4
2022-12-26T00:57:00.571Z,11.4
2022-12-26T00:58:00.672Z,11.4
2022-12-26T00:59:00.754Z,11.4
2022-12-26T01:00:00.845Z,11.4
2022-12-26T01:01:06.294Z,11.4
2022-12-26T01:02:01.288Z,11.4
2022-12-26T01:03:01.200Z,11.4
2022-12-26T01:04:01.210Z,11.4
2022-12-26T01:05:11.163Z,11.4
2022-12-26T01:06:01.295Z,11.4
2022-12-26T01:07:02.363Z,11.4
2022-12-26T01:08:20.698Z,11.4
2022-12-26T01:09:01.536Z,11.4
2022-12-26T01:10:01.605Z,11.4
2022-12-26T01:11:01.703Z,11.4
2022-12-26T01:12:01.800Z,11.4
2022-12-26T01:13:01.847Z,11.3
2022-12-26T01:14:01.881Z,11.3
2022-12-26T01:15:01.941Z,11.3
2022-12-26T01:16:02.152Z,11.3
2022-12-26T01:17:08.916Z,11.4
2022-12-26T01:18:02.161Z,11.4
2022-12-26T01:19:02.230Z,11.4
2022-12-26T01:20:02.568Z,11.4
2022-12-26T01:21:02.424Z,11.4
2022-12-26T01:22:02.482Z,11.4
2022-12-26T01:23:07.629Z,11.4
2022-12-26T01:24:02.685Z,11.4
2022-12-26T01:25:02.761Z,11.4
2022-12-26T01:26:14.738Z,11.4
2022-12-26T01:27:02.895Z,11.4
2022-12-26T01:28:02.970Z,11.4
2022-12-26T01:29:03.088Z,11.4
2022-12-26T01:30:03.131Z,11.4
2022-12-26T01:31:03.259Z,11.4
2022-12-26T01:32:03.313Z,11.4
2022-12-26T01:33:03.335Z,11.4
2022-12-26T01:34:03.400Z,11.4
2022-12-26T01:35:03.482Z,11.4
2022-12-26T01:36:03.702Z,11.4
2022-12-26T01:37:03.637Z,11.4
2022-12-26T01:38:03.721Z,11.4
2022-12-26T01:39:03.818Z,11.4
2022-12-26T01:40:03.909Z,11.4
2022-12-26T01:41:03.985Z,11.4
2022-12-26T01:42:04.068Z,11.4
2022-12-26T01:43:04.141Z,11.4
2022-12-26T01:44:04.208Z,11.4
2022-12-26T01:45:04.325Z,11.4
2022-12-26T01:46:04.423Z,11.4
2022-12-26T01:47:04.422Z,11.4
2022-12-26T01:48:04.535Z,11.3
2022-12-26T01:49:04.602Z,11.3
2022-12-26T01:50:04.650Z,11.3
2022-12-26T01:51:04.773Z,11.3
2022-12-26T01:52:04.836Z,11.4
2022-12-26T01:53:04.867Z,11.3
2022-12-26T01:54:38.703Z,11.3
2022-12-26T01:55:05.057Z,11.3
2022-12-26T01:56:05.120Z,11.4
2022-12-26T01:57:05.207Z,11.3
2022-12-26T01:58:05.263Z,11.3
2022-12-26T01:59:05.355Z,11.3
2022-12-26T02:00:05.432Z,11.3
2022-12-26T02:01:05.636Z,11.3
2022-12-26T02:02:05.746Z,11.4
2022-12-26T02:03:05.763Z,11.4
2022-12-26T02:04:05.806Z,11.4
2022-12-26T02:05:05.852Z,11.4
2022-12-26T02:06:06.211Z,11.3
2022-12-26T02:07:06.214Z,11.3
2022-12-26T02:08:06.136Z,11.3
2022-12-26T02:09:06.142Z,11.3
2022-12-26T02:10:06.277Z,11.4
2022-12-26T02:11:06.378Z,11.4
2022-12-26T02:12:33.524Z,11.3
2022-12-26T02:13:06.524Z,11.3
2022-12-26T02:14:06.562Z,11.4
2022-12-26T02:15:06.646Z,11.4
2022-12-26T02:16:06.783Z,11.4
2022-12-26T02:17:06.789Z,11.4
2022-12-26T02:18:06.850Z,11.3
2022-12-26T02:19:06.938Z,11.3
2022-12-26T02:20:07.008Z,11.4
2022-12-26T02:21:07.112Z,11.4
2022-12-26T02:22:07.170Z,11.4
2022-12-26T02:23:07.286Z,11.4
2022-12-26T02:24:07.589Z,11.4
2022-12-26T02:25:07.434Z,11.4
2022-12-26T02:26:07.517Z,11.3
2022-12-26T02:27:07.897Z,11.4
2022-12-26T02:28:07.670Z,11.4
2022-12-26T02:29:07.756Z,11.3
2022-12-26T02:30:07.809Z,11.3
2022-12-26T02:31:07.908Z,11.3
2022-12-26T02:32:08.064Z,11.3
2022-12-26T02:33:08.077Z,11.3
2022-12-26T02:34:08.198Z,11.4
2022-12-26T02:35:08.218Z,11.4
2022-12-26T02:36:08.327Z,11.3
2022-12-26T02:37:08.335Z,11.3
2022-12-26T02:38:08.428Z,11.3
2022-12-26T02:39:43.060Z,11.3
2022-12-26T02:40:08.606Z,11.3
2022-12-26T02:41:08.629Z,11.3
2022-12-26T02:42:08.659Z,11.2
2022-12-26T02:43:08.763Z,11.2
2022-12-26T02:44:08.818Z,11.2
2022-12-26T02:45:08.893Z,11.1
2022-12-26T02:46:09.071Z,11.1
2022-12-26T02:47:09.032Z,11.1
2022-12-26T02:48:09.099Z,11
2022-12-26T02:49:09.237Z,11
2022-12-26T02:50:09.314Z,11
2022-12-26T02:51:09.394Z,11
2022-12-26T02:52:10.428Z,11.1
2022-12-26T02:53:09.501Z,11
2022-12-26T02:54:09.599Z,11
2022-12-26T02:55:09.647Z,11
2022-12-26T02:56:09.769Z,10.9
2022-12-26T02:57:09.794Z,10.9
2022-12-26T02:58:09.842Z,10.9
2022-12-26T02:59:09.922Z,10.9
2022-12-26T03:00:10.030Z,10.8
2022-12-26T03:01:10.119Z,10.8
2022-12-26T03:02:10.208Z,10.8
2022-12-26T03:03:10.273Z,10.9
2022-12-26T03:04:10.281Z,10.9
2022-12-26T03:05:10.375Z,10.9
2022-12-26T03:06:10.481Z,10.9
2022-12-26T03:07:10.525Z,10.9
2022-12-26T03:08:10.600Z,10.9
2022-12-26T03:09:10.777Z,10.9
2022-12-26T03:10:11.146Z,10.8
2022-12-26T03:11:10.935Z,10.8
2022-12-26T03:12:11.017Z,10.8
2022-12-26T03:13:11.127Z,10.8
2022-12-26T03:14:11.147Z,10.8
2022-12-26T03:15:11.211Z,10.8
2022-12-26T03:16:11.520Z,10.8
2022-12-26T03:17:11.445Z,10.8
2022-12-26T03:18:11.461Z,10.8
2022-12-26T03:19:11.543Z,10.8
2022-12-26T03:20:11.581Z,10.8
2022-12-26T03:21:11.694Z,10.8
2022-12-26T03:22:11.753Z,10.8
2022-12-26T03:23:11.782Z,10.8
2022-12-26T03:24:11.980Z,10.9
2022-12-26T03:25:11.945Z,10.8
2022-12-26T03:26:17.297Z,10.8
2022-12-26T03:27:12.184Z,10.8
2022-12-26T03:28:13.715Z,10.8
2022-12-26T03:29:17.170Z,10.9
2022-12-26T03:30:12.387Z,10.9
2022-12-26T03:31:14.835Z,10.9
2022-12-26T03:32:12.516Z,10.9
2022-12-26T03:33:13.593Z,10.9
2022-12-26T03:34:12.718Z,10.9
2022-12-26T03:36:15.435Z,10.9
2022-12-26T03:36:15.459Z,10.8
2022-12-26T03:37:12.910Z,10.8
2022-12-26T03:38:13.029Z,10.8
2022-12-26T03:39:13.074Z,10.8
2022-12-26T03:40:13.154Z,10.9
2022-12-26T03:41:13.207Z,11
2022-12-26T03:42:13.289Z,11
2022-12-26T03:43:13.341Z,10.9
2022-12-26T03:44:18.464Z,10.9
2022-12-26T03:45:18.542Z,10.9
2022-12-26T03:46:18.777Z,10.9
2022-12-26T03:47:13.744Z,10.9
2022-12-26T03:48:15.693Z,10.9
2022-12-26T03:49:13.845Z,10.9
2022-12-26T03:50:13.958Z,10.9
2022-12-26T03:51:14.020Z,10.8
2022-12-26T03:52:14.090Z,10.9
2022-12-26T03:53:14.172Z,10.9
2022-12-26T03:54:14.223Z,11
2022-12-26T03:55:14.272Z,11
2022-12-26T03:56:14.397Z,11
2022-12-26T03:57:14.703Z,10.9
2022-12-26T03:58:14.522Z,11
2022-12-26T03:59:14.688Z,11
2022-12-26T04:00:14.708Z,11
2022-12-26T04:01:14.967Z,11
2022-12-26T04:02:20.201Z,11
2022-12-26T04:03:14.961Z,11
2022-12-26T04:04:14.996Z,11
2022-12-26T04:05:15.083Z,11
2022-12-26T04:06:15.214Z,11
2022-12-26T04:07:15.253Z,11
2022-12-26T04:08:18.700Z,11
2022-12-26T04:09:15.339Z,11
2022-12-26T04:10:16.490Z,10.9
2022-12-26T04:11:15.498Z,11
2022-12-26T04:12:15.564Z,11
2022-12-26T04:13:15.655Z,11.1
2022-12-26T04:14:15.744Z,11.1
2022-12-26T04:15:15.797Z,11
2022-12-26T04:16:15.954Z,11
2022-12-26T04:17:15.943Z,11
2022-12-26T04:18:16.097Z,10.9
2022-12-26T04:19:21.091Z,10.9
2022-12-26T04:20:26.167Z,10.9
2022-12-26T04:21:16.292Z,10.9
2022-12-26T04:22:16.355Z,10.9
2022-12-26T04:23:16.530Z,10.9
2022-12-26T04:24:16.522Z,10.9
2022-12-26T04:25:16.921Z,10.9
2022-12-26T04:26:16.624Z,10.9
2022-12-26T04:27:16.729Z,10.9
2022-12-26T04:28:16.821Z,10.9
2022-12-26T04:29:16.920Z,10.9
2022-12-26T04:31:52.022Z,11
2022-12-26T04:32:22.770Z,11
2022-12-26T04:33:17.249Z,11
2022-12-26T04:34:17.381Z,10.9
2022-12-26T04:35:17.420Z,10.9
2022-12-26T04:36:19.665Z,10.9
2022-12-26T04:37:17.571Z,10.9
2022-12-26T04:38:17.602Z,10.9
2022-12-26T04:39:17.724Z,10.9
2022-12-26T04:40:18.808Z,10.9
2022-12-26T04:41:17.842Z,10.9
2022-12-26T04:42:17.931Z,10.9
2022-12-26T04:43:48.013Z,10.9
2022-12-26T04:44:18.082Z,10.9
2022-12-26T04:45:18.176Z,10.9
2022-12-26T04:46:18.244Z,10.9
2022-12-26T04:47:18.383Z,10.9
2022-12-26T04:48:18.398Z,10.9
2022-12-26T04:49:18.487Z,10.9
2022-12-26T04:50:18.588Z,10.9
2022-12-26T04:51:18.675Z,10.9
2022-12-26T04:52:25.155Z,10.9
2022-12-26T04:53:18.860Z,10.9
2022-12-26T04:54:18.953Z,10.9
2022-12-26T04:55:19.018Z,11
2022-12-26T04:56:19.097Z,11
2022-12-26T04:57:19.129Z,10.9
2022-12-26T04:58:19.207Z,10.9
2022-12-26T04:59:19.290Z,10.9
2022-12-26T05:00:19.426Z,10.9
2022-12-26T05:01:19.832Z,10.9
2022-12-26T05:02:19.682Z,10.9
2022-12-26T05:03:30.636Z,10.9
2022-12-26T05:03:33.864Z,10.9
2022-12-26T05:04:19.644Z,10.9
2022-12-26T05:05:19.854Z,10.9
2022-12-26T05:06:19.946Z,10.8
2022-12-26T05:07:21.587Z,10.8
2022-12-26T05:08:20.259Z,10.8
2022-12-26T05:09:20.139Z,10.9
2022-12-26T05:10:20.128Z,10.8
2022-12-26T05:11:22.495Z,10.8
2022-12-26T05:12:20.285Z,10.8
2022-12-26T05:13:20.394Z,10.8
2022-12-26T05:14:20.495Z,10.8
2022-12-26T05:15:20.945Z,10.9
2022-12-26T05:16:20.595Z,10.9
2022-12-26T05:17:20.695Z,10.9
2022-12-26T05:18:21.686Z,10.8
2022-12-26T05:19:20.794Z,10.8
2022-12-26T05:20:21.083Z,10.8
2022-12-26T05:21:20.887Z,10.8
2022-12-26T05:22:21.205Z,10.8
2022-12-26T05:23:21.050Z,10.8
2022-12-26T05:24:27.681Z,10.8
2022-12-26T05:25:21.115Z,10.7
2022-12-26T05:26:21.158Z,10.7
2022-12-26T05:27:21.518Z,10.7
2022-12-26T05:28:21.342Z,10.6
2022-12-26T05:29:21.463Z,10.6
2022-12-26T05:30:21.537Z,10.6
2022-12-26T05:31:21.611Z,10.6
2022-12-26T05:32:21.682Z,10.6
2022-12-26T05:33:22.287Z,10.6
2022-12-26T05:34:21.832Z,10.6
2022-12-26T05:35:21.899Z,10.5
2022-12-26T05:36:26.976Z,10.5
2022-12-26T05:37:22.277Z,10.5
2022-12-26T05:38:22.140Z,10.4
2022-12-26T05:39:22.197Z,10.4
2022-12-26T05:40:22.261Z,10.4
2022-12-26T05:41:22.329Z,10.4
2022-12-26T05:42:22.409Z,10.4
2022-12-26T05:43:27.482Z,10.4
2022-12-26T05:44:22.607Z,10.3
2022-12-26T05:45:22.563Z,10.3
2022-12-26T05:46:22.649Z,10.3
2022-12-26T05:47:22.639Z,10.3
2022-12-26T05:48:22.749Z,10.2
2022-12-26T05:49:22.839Z,10.2
2022-12-26T05:50:22.837Z,10.2
2022-12-26T05:51:22.881Z,10.2
2022-12-26T05:52:22.890Z,10.2
2022-12-26T05:53:22.929Z,10.2
2022-12-26T05:54:23.003Z,10.3
2022-12-26T05:55:23.052Z,10.3
2022-12-26T05:56:24.135Z,10.3
2022-12-26T05:57:23.135Z,10.3
2022-12-26T05:58:23.142Z,10.3
2022-12-26T05:59:23.171Z,10.1
2022-12-26T06:00:23.232Z,10.1
2022-12-26T06:01:23.277Z,10.1
2022-12-26T06:02:23.481Z,10
2022-12-26T06:03:23.388Z,10.1
2022-12-26T06:04:23.401Z,10.1
2022-12-26T06:05:23.371Z,10
2022-12-26T06:06:34.962Z,10.1
2022-12-26T06:07:23.438Z,10.1
2022-12-26T06:08:23.458Z,10
2022-12-26T06:09:23.496Z,10.1
2022-12-26T06:10:23.524Z,10.1
2022-12-26T06:11:23.532Z,10.1
2022-12-26T06:12:23.631Z,10
2022-12-26T06:13:23.591Z,10
2022-12-26T06:14:23.703Z,10
2022-12-26T06:15:23.712Z,10.1
2022-12-26T06:16:23.812Z,10.1
2022-12-26T06:17:23.760Z,10
2022-12-26T06:18:23.786Z,10
2022-12-26T06:19:28.821Z,10
2022-12-26T06:20:23.846Z,10
2022-12-26T06:21:24.121Z,10
2022-12-26T06:22:23.955Z,10
2022-12-26T06:23:23.921Z,10
2022-12-26T06:24:23.975Z,9.9
2022-12-26T06:25:24.027Z,10
2022-12-26T06:26:24.047Z,9.9
2022-12-26T06:27:24.090Z,9.9
2022-12-26T06:28:24.069Z,9.9
2022-12-26T06:29:24.121Z,9.9
2022-12-26T06:30:24.152Z,9.9
2022-12-26T06:31:24.247Z,10
2022-12-26T06:32:24.298Z,10
2022-12-26T06:33:24.316Z,9.9
2022-12-26T06:34:24.297Z,9.8
2022-12-26T06:35:24.568Z,9.8
2022-12-26T06:36:24.334Z,9.8
2022-12-26T06:37:24.407Z,9.8
2022-12-26T06:38:24.515Z,9.8
2022-12-26T06:39:24.532Z,9.8
2022-12-26T06:40:24.648Z,9.8
2022-12-26T06:41:24.712Z,9.8
2022-12-26T06:42:24.824Z,9.8
2022-12-26T06:43:24.844Z,9.8
2022-12-26T06:44:24.938Z,9.8
2022-12-26T06:45:26.222Z,9.8
2022-12-26T06:46:25.205Z,9.7
2022-12-26T06:47:25.149Z,9.7
2022-12-26T06:48:25.201Z,9.7
2022-12-26T06:49:30.542Z,9.7
2022-12-26T06:50:25.358Z,9.7
2022-12-26T06:51:25.340Z,9.6
2022-12-26T06:52:25.426Z,9.7
2022-12-26T06:53:25.476Z,9.7
2022-12-26T06:54:25.547Z,9.6
2022-12-26T06:55:25.587Z,9.6
2022-12-26T06:56:25.609Z,9.7
2022-12-26T06:57:25.666Z,9.6
2022-12-26T06:58:25.719Z,9.6
2022-12-26T06:59:26.252Z,9.6
2022-12-26T07:00:25.832Z,9.6
2022-12-26T07:01:25.939Z,9.5
2022-12-26T07:02:26.009Z,9.5
2022-12-26T07:03:30.948Z,9.4
2022-12-26T07:04:25.998Z,9.4
2022-12-26T07:05:26.070Z,9.4
2022-12-26T07:06:31.566Z,9.5
2022-12-26T07:07:26.156Z,9.4
2022-12-26T07:08:26.193Z,9.5
2022-12-26T07:09:33.772Z,9.5
2022-12-26T07:10:26.346Z,9.5
2022-12-26T07:11:31.443Z,9.4
2022-12-26T07:12:31.479Z,9.5
2022-12-26T07:13:26.800Z,9.5
2022-12-26T07:14:26.624Z,9.4
2022-12-26T07:15:26.678Z,9.4
2022-12-26T07:16:27.292Z,9.5
2022-12-26T07:17:26.783Z,9.4
2022-12-26T07:18:26.835Z,9.4
2022-12-26T07:19:31.884Z,9.4
2022-12-26T07:20:27.008Z,9.4
2022-12-26T07:21:27.041Z,9.4
2022-12-26T07:22:27.147Z,9.4
2022-12-26T07:23:27.182Z,9.5
2022-12-26T07:24:28.792Z,9.5
2022-12-26T07:25:27.379Z,9.5
2022-12-26T07:26:27.389Z,9.5
2022-12-26T07:27:28.415Z,9.5
2022-12-26T07:28:27.550Z,9.5
2022-12-26T07:29:27.845Z,9.5
2022-12-26T07:30:27.724Z,9.5
2022-12-26T07:31:27.824Z,9.6
2022-12-26T07:32:27.896Z,9.5
2022-12-26T07:33:27.922Z,9.5
2022-12-26T07:34:31.551Z,9.5
2022-12-26T07:35:28.339Z,9.4
2022-12-26T07:36:36.604Z,9.4
2022-12-26T07:37:42.208Z,9.4
2022-12-26T07:38:29.748Z,9.4
2022-12-26T07:39:28.405Z,9.4
2022-12-26T07:40:28.621Z,9.3
2022-12-26T07:41:28.612Z,9.4
2022-12-26T07:42:28.646Z,9.4
2022-12-26T07:43:28.706Z,9.3
2022-12-26T07:44:28.806Z,9.3
2022-12-26T07:45:32.518Z,9.3
2022-12-26T07:46:29.034Z,9.4
2022-12-26T07:47:29.086Z,9.4
2022-12-26T07:48:29.174Z,9.4
2022-12-26T07:51:30.582Z,9.4
2022-12-26T07:52:29.372Z,9.4
2022-12-26T07:53:29.465Z,9.5
2022-12-26T07:58:30.816Z,9.4
2022-12-26T07:59:30.868Z,9.4
2022-12-26T08:00:30.949Z,9.4
2022-12-26T08:01:31.178Z,9.4
2022-12-26T08:02:31.203Z,9.4
2022-12-26T08:03:31.143Z,9.5
2022-12-26T08:04:31.137Z,9.6
2022-12-26T08:05:31.209Z,9.5
2022-12-26T08:06:31.304Z,9.4
2022-12-26T08:07:31.339Z,9.5
2022-12-26T08:08:31.394Z,9.5
2022-12-26T08:09:34.381Z,9.5
2022-12-26T08:10:31.440Z,9.5
2022-12-26T08:11:31.493Z,9.4
2022-12-26T08:12:31.773Z,9.4
2022-12-26T08:13:31.554Z,9.5
2022-12-26T08:14:31.651Z,9.5
2022-12-26T08:15:31.619Z,9.5
2022-12-26T08:16:31.752Z,9.5
2022-12-26T08:17:31.673Z,9.5
2022-12-26T08:18:32.716Z,9.5
2022-12-26T08:19:31.800Z,9.4
2022-12-26T08:20:32.192Z,9.4
2022-12-26T08:21:31.933Z,9.3
2022-12-26T08:22:31.794Z,9.4
2022-12-26T08:23:32.211Z,9.5
2022-12-26T08:24:31.897Z,9.5
2022-12-26T08:25:31.909Z,9.4
2022-12-26T08:26:32.211Z,9.4
2022-12-26T08:27:32.024Z,9.4
2022-12-26T08:28:32.003Z,9.4
2022-12-26T08:29:32.058Z,9.3
2022-12-26T08:30:32.089Z,9.4
2022-12-26T08:31:32.131Z,9.4
2022-12-26T08:32:32.305Z,9.4
2022-12-26T08:33:32.185Z,9.4
2022-12-26T08:34:32.250Z,9.4
2022-12-26T08:35:32.287Z,9.4
2022-12-26T08:36:32.739Z,9.4
2022-12-26T08:37:34.390Z,9.4
2022-12-26T08:38:33.968Z,9.4
2022-12-26T08:39:32.481Z,9.4
2022-12-26T08:40:42.905Z,9.4
2022-12-26T08:41:32.500Z,9.5
2022-12-26T08:42:32.501Z,9.4
2022-12-26T08:43:53.080Z,9.3
2022-12-26T08:44:32.589Z,9.4
2022-12-26T08:45:32.675Z,9.4
2022-12-26T08:46:32.639Z,9.5
2022-12-26T08:47:33.613Z,9.4
2022-12-26T08:48:32.719Z,9.4
2022-12-26T08:49:32.764Z,9.4
2022-12-26T08:50:36.544Z,9.4
2022-12-26T08:51:33.150Z,9.5
2022-12-26T08:52:32.826Z,9.5
2022-12-26T08:53:33.122Z,9.5
2022-12-26T08:54:32.912Z,9.4
2022-12-26T08:55:33.086Z,9.4
2022-12-26T08:56:32.989Z,9.5
2022-12-26T08:57:33.714Z,9.5
2022-12-26T08:58:33.078Z,9.6
2022-12-26T08:59:33.558Z,9.6
2022-12-26T09:00:34.259Z,9.6
2022-12-26T09:01:33.644Z,9.6
2022-12-26T09:02:33.870Z,9.6
2022-12-26T09:03:42.620Z,9.5
2022-12-26T09:04:33.697Z,9.5
2022-12-26T09:05:38.492Z,9.5
2022-12-26T09:06:44.730Z,9.5
2022-12-26T09:08:05.565Z,9.5
2022-12-26T09:08:33.714Z,9.6
2022-12-26T09:09:33.775Z,9.6
2022-12-26T09:10:33.833Z,9.6
2022-12-26T09:11:38.883Z,9.5
2022-12-26T09:12:33.972Z,9.5
2022-12-26T09:13:34.025Z,9.5
2022-12-26T09:14:34.108Z,9.5
2022-12-26T09:15:34.146Z,9.5
2022-12-26T09:16:37.878Z,9.6
2022-12-26T09:17:35.314Z,9.6
2022-12-26T09:18:34.653Z,9.7
2022-12-26T09:19:34.330Z,9.6
2022-12-26T09:20:34.389Z,9.5
2022-12-26T09:21:34.375Z,9.6
2022-12-26T09:22:35.398Z,9.7
2022-12-26T09:23:34.773Z,9.7
2022-12-26T09:24:34.506Z,9.7
2022-12-26T09:25:34.742Z,9.8
2022-12-26T09:26:34.597Z,9.9
2022-12-26T09:27:36.225Z,9.9
2022-12-26T09:28:34.650Z,9.9
2022-12-26T09:29:34.699Z,9.9
2022-12-26T09:30:34.768Z,9.9
2022-12-26T09:31:34.815Z,9.9
2022-12-26T09:32:34.790Z,10
2022-12-26T09:33:35.597Z,9.9
2022-12-26T09:34:42.822Z,9.9
2022-12-26T09:35:35.961Z,10
2022-12-26T09:36:34.922Z,10
2022-12-26T09:37:36.240Z,10
2022-12-26T09:38:35.036Z,10
2022-12-26T09:39:35.073Z,10
2022-12-26T09:40:35.124Z,10.1
2022-12-26T09:41:35.503Z,10
2022-12-26T09:42:35.409Z,10
2022-12-26T09:43:35.204Z,9.9
2022-12-26T09:44:35.193Z,10
2022-12-26T09:45:42.802Z,10
2022-12-26T09:46:35.338Z,10
2022-12-26T09:47:39.931Z,10
2022-12-26T09:48:35.315Z,10.1
2022-12-26T09:49:36.668Z,10.1
2022-12-26T09:50:39.666Z,10.1
2022-12-26T10:00:05.158Z,10.2
2022-12-26T10:01:04.563Z,10.2
2022-12-26T10:02:04.186Z,10.2
2022-12-26T10:03:04.493Z,10.2
2022-12-26T10:04:05.912Z,10.3
2022-12-26T10:05:05.234Z,10.3
2022-12-26T10:06:04.835Z,10.4
2022-12-26T10:07:05.193Z,10.4
2022-12-26T10:08:04.890Z,10.4
2022-12-26T10:09:09.533Z,10.4
2022-12-26T10:10:06.172Z,10.4
2022-12-26T10:11:11.091Z,10.4
2022-12-26T10:12:05.530Z,10.4
2022-12-26T10:13:12.332Z,10.4
2022-12-26T10:15:06.631Z,10.5
2022-12-26T10:17:05.542Z,10.5
2022-12-26T10:18:06.243Z,10.6
2022-12-26T10:19:07.635Z,10.6
2022-12-26T10:20:09.029Z,10.6
2022-12-26T10:23:05.451Z,10.6
2022-12-26T10:24:05.487Z,10.6
2022-12-26T10:25:06.488Z,10.7
2022-12-26T10:26:05.674Z,10.8
2022-12-26T10:27:05.715Z,10.9
2022-12-26T10:28:05.804Z,11
2022-12-26T10:29:05.867Z,11
2022-12-26T10:30:05.923Z,10.9
2022-12-26T10:31:06.050Z,10.9
2022-12-26T10:32:06.101Z,10.8
2022-12-26T10:41:39.714Z,11.4
2022-12-26T10:42:39.137Z,11.5
2022-12-26T10:43:39.388Z,11.6
2022-12-26T10:44:46.573Z,11.6
2022-12-26T10:45:39.251Z,11.4
2022-12-26T10:46:39.323Z,11.3
2022-12-26T10:47:39.917Z,11.4
2022-12-26T10:48:39.328Z,11.3
2022-12-26T10:49:41.985Z,11.2
2022-12-26T10:50:40.887Z,11.3
2022-12-26T10:51:40.583Z,11.2
2022-12-26T10:52:39.745Z,11.3
2022-12-26T10:53:39.810Z,11.4
2022-12-26T10:54:44.743Z,11.4
2022-12-26T10:55:39.963Z,11.4
2022-12-26T10:56:40.658Z,11.4
2022-12-26T10:57:51.816Z,11.3
2022-12-26T10:58:39.928Z,11.3
2022-12-26T10:59:40.327Z,11.3
2022-12-26T11:00:39.680Z,11.2
2022-12-26T11:01:39.843Z,11.1
2022-12-26T11:02:39.884Z,11.2
2022-12-26T11:03:39.821Z,11.3
2022-12-26T11:05:11.533Z,11.2
2022-12-26T11:06:10.007Z,11.2
2022-12-26T11:06:40.448Z,11.1
2022-12-26T11:07:43.087Z,11.1
2022-12-26T11:08:42.850Z,11.1
2022-12-26T11:09:41.224Z,11.2
2022-12-26T11:10:40.413Z,11.2
2022-12-26T11:11:41.324Z,11.1
2022-12-26T11:12:40.703Z,11.1
2022-12-26T11:13:42.808Z,11
2022-12-26T11:14:41.286Z,11
2022-12-26T11:15:40.837Z,11
2022-12-26T11:16:42.419Z,11.1
2022-12-26T11:17:43.001Z,11.1
2022-12-26T11:18:40.896Z,11.1
2022-12-26T11:19:41.182Z,11
2022-12-26T11:20:42.542Z,11
2022-12-26T11:21:43.927Z,11
2022-12-26T11:22:41.064Z,11
2022-12-26T11:23:41.111Z,10.9
2022-12-26T11:24:41.199Z,10.9
2022-12-26T11:25:41.003Z,10.9
2022-12-26T11:26:41.106Z,10.9
2022-12-26T11:27:48.579Z,10.9
2022-12-26T11:28:41.291Z,10.9
2022-12-26T11:29:41.634Z,10.9
2022-12-26T11:30:41.634Z,10.9
2022-12-26T11:31:47.532Z,10.9
2022-12-26T11:32:41.815Z,10.9
2022-12-26T11:33:41.719Z,11
2022-12-26T11:34:41.866Z,11
2022-12-26T11:35:43.392Z,11
2022-12-26T11:36:41.755Z,11
2022-12-26T11:37:46.511Z,11
2022-12-26T11:38:46.093Z,10.9
2022-12-26T11:39:55.844Z,11
2022-12-26T11:41:16.631Z,10.9
2022-12-26T11:42:17.536Z,10.9
2022-12-26T11:43:16.608Z,10.9
2022-12-26T11:44:22.729Z,11
2022-12-26T11:45:17.114Z,11
2022-12-26T11:46:23.114Z,11.1
2022-12-26T11:47:21.353Z,11
2022-12-26T11:48:53.468Z,10.9
2022-12-26T11:49:16.683Z,10.9
2022-12-26T11:52:00.016Z,11
2022-12-26T11:52:16.884Z,11
2022-12-26T11:53:16.945Z,11
2022-12-26T11:54:17.047Z,10.9
2022-12-26T11:55:17.572Z,10.9
2022-12-26T11:56:17.239Z,10.9
2022-12-26T11:58:17.112Z,10.9
2022-12-26T11:59:17.448Z,11
2022-12-26T12:00:17.892Z,10.9
2022-12-26T12:01:17.914Z,10.9
2022-12-26T12:02:17.332Z,11
2022-12-26T12:03:17.791Z,11
2022-12-26T12:04:17.357Z,11
2022-12-26T12:05:17.603Z,11
2022-12-26T12:06:22.416Z,10.9
2022-12-26T12:07:17.431Z,10.9
2022-12-26T12:08:17.471Z,10.8
2022-12-26T12:09:17.567Z,10.8
2022-12-26T12:10:17.517Z,10.8
2022-12-26T12:11:17.560Z,10.8
2022-12-26T12:12:17.605Z,10.8
2022-12-26T12:13:17.879Z,10.8
2022-12-26T12:14:17.717Z,10.8
2022-12-26T12:15:17.707Z,10.7
2022-12-26T12:16:17.812Z,10.6
2022-12-26T12:17:18.840Z,10.6
2022-12-26T12:18:17.813Z,10.6
2022-12-26T12:19:18.333Z,10.6
2022-12-26T12:20:19.202Z,10.6
2022-12-26T12:21:22.867Z,10.6
2022-12-26T12:22:22.914Z,10.6
2022-12-26T12:23:18.033Z,10.6
2022-12-26T12:24:18.398Z,10.6
2022-12-26T12:25:18.022Z,10.6
2022-12-26T12:26:23.063Z,10.6
2022-12-26T12:27:18.095Z,10.6
2022-12-26T12:28:18.094Z,10.6
2022-12-26T12:29:18.157Z,10.6
2022-12-26T12:30:18.186Z,10.6
2022-12-26T12:31:18.264Z,10.6
2022-12-26T12:32:18.236Z,10.6
2022-12-26T12:33:18.293Z,10.6
2022-12-26T12:34:18.297Z,10.6
2022-12-26T12:35:18.340Z,10.6
2022-12-26T12:36:18.459Z,10.6
2022-12-26T12:37:18.697Z,10.5
2022-12-26T12:38:18.728Z,10.5
2022-12-26T12:39:18.957Z,10.5
2022-12-26T12:40:18.916Z,10.5
2022-12-26T12:41:18.915Z,10.6
2022-12-26T12:42:18.813Z,10.6
2022-12-26T12:43:18.895Z,10.6
2022-12-26T12:44:19.228Z,10.7
2022-12-26T12:45:19.044Z,10.7
2022-12-26T12:46:19.128Z,10.7
2022-12-26T12:47:19.186Z,10.7
2022-12-26T12:48:19.244Z,10.7
2022-12-26T12:49:19.581Z,10.7
2022-12-26T12:50:19.893Z,10.7
2022-12-26T12:51:19.470Z,10.7
2022-12-26T12:52:19.521Z,10.7
2022-12-26T12:53:19.575Z,10.6
2022-12-26T12:54:19.845Z,10.6
2022-12-26T12:55:19.652Z,10.7
2022-12-26T12:56:20.732Z,10.7
2022-12-26T12:57:19.735Z,10.6
2022-12-26T12:58:20.003Z,10.6
2022-12-26T12:59:19.995Z,10.7
2022-12-26T13:00:19.810Z,10.7
2022-12-26T13:01:19.933Z,10.7
2022-12-26T13:02:20.786Z,10.6
2022-12-26T13:03:20.479Z,10.6
2022-12-26T13:04:20.379Z,10.6
2022-12-26T13:05:20.339Z,10.6
2022-12-26T13:06:23.351Z,10.6
2022-12-26T13:07:20.677Z,10.6
2022-12-26T13:08:20.862Z,10.6
2022-12-26T13:09:21.346Z,10.6
2022-12-26T13:10:20.165Z,10.6
2022-12-26T13:11:20.198Z,10.6
2022-12-26T13:12:20.487Z,10.5
2022-12-26T13:13:20.513Z,10.5
2022-12-26T13:14:20.278Z,10.5
2022-12-26T13:15:20.344Z,10.5
2022-12-26T13:16:20.387Z,10.4
2022-12-26T13:17:25.375Z,10.4
2022-12-26T13:18:20.411Z,10.4
2022-12-26T13:19:20.432Z,10.4
2022-12-26T13:20:20.721Z,10.3
2022-12-26T13:21:21.003Z,10.3
2022-12-26T13:22:25.521Z,10.3
2022-12-26T13:23:20.573Z,10.3
2022-12-26T13:24:20.613Z,10.4
2022-12-26T13:25:20.675Z,10.4
2022-12-26T13:26:20.932Z,10.3
2022-12-26T13:27:20.708Z,10.3
2022-12-26T13:28:25.752Z,10.3
2022-12-26T13:29:20.810Z,10.3
2022-12-26T13:30:20.850Z,10.3
2022-12-26T13:31:20.878Z,10.3
2022-12-26T13:32:20.869Z,10.3
2022-12-26T13:33:20.937Z,10.4
2022-12-26T13:34:20.954Z,10.3
2022-12-26T13:35:21.029Z,10.3
2022-12-26T13:36:21.045Z,10.4
2022-12-26T13:37:22.163Z,10.3
2022-12-26T13:38:21.085Z,10.3
2022-12-26T13:39:21.150Z,10.3
2022-12-26T13:40:21.186Z,10.3
2022-12-26T13:41:21.189Z,10.3
2022-12-26T13:42:21.409Z,10.3
2022-12-26T13:43:21.273Z,10.3
2022-12-26T13:44:21.274Z,10.3
2022-12-26T13:45:21.334Z,10.3
2022-12-26T13:46:21.631Z,10.3
2022-12-26T13:47:21.385Z,10.3
2022-12-26T13:48:21.530Z,10.3
2022-12-26T13:49:21.820Z,10.2
2022-12-26T13:50:21.683Z,10.2
2022-12-26T13:51:21.775Z,10.2
2022-12-26T13:52:21.832Z,10.1
2022-12-26T13:53:21.910Z,10.1
2022-12-26T13:54:22.160Z,10.2
2022-12-26T13:55:22.029Z,10.2
2022-12-26T13:56:22.051Z,10.2
2022-12-26T13:57:22.114Z,10.2
2022-12-26T13:58:22.190Z,10.1
2022-12-26T13:59:22.230Z,10
2022-12-26T14:00:22.556Z,10.1
2022-12-26T14:01:22.482Z,10.2